createdAt,value
2022-10-05T00:00:07.178Z,6.47
2022-10-05T00:04:33.036Z,6.38
2022-10-05T00:08:36.553Z,6.33
2022-10-05T00:12:39.863Z,6.32
2022-10-05T00:16:43.349Z,6.37
2022-10-05T00:20:48.627Z,6.49
2022-10-05T00:24:58.086Z,6.62
2022-10-05T00:29:02.095Z,6.76
2022-10-05T00:33:06.168Z,6.83
2022-10-05T00:37:09.880Z,6.91
2022-10-05T00:41:30.152Z,7.01
2022-10-05T00:45:40.887Z,7.15
2022-10-05T00:50:03.497Z,7.24
2022-10-05T00:54:17.445Z,7.28
2022-10-05T00:58:30.865Z,7.32
2022-10-05T01:03:06.327Z,7.37
2022-10-05T01:07:44.984Z,7.40
2022-10-05T01:12:09.418Z,7.38
2022-10-05T01:16:27.433Z,7.34
2022-10-05T01:20:51.795Z,7.34
2022-10-05T01:25:13.714Z,7.39
2022-10-05T01:29:29.053Z,7.43
2022-10-05T01:33:58.847Z,7.37
2022-10-05T01:38:25.883Z,7.28
2022-10-05T01:42:59.857Z,7.26
2022-10-05T01:47:28.137Z,7.28
2022-10-05T01:51:43.764Z,7.30
2022-10-05T01:56:09.902Z,7.32
2022-10-05T02:00:16.892Z,7.32
2022-10-05T02:09:14.756Z,7.28
2022-10-05T02:13:53.538Z,7.31
2022-10-05T02:18:07.119Z,7.33
2022-10-05T02:22:31.006Z,7.34
2022-10-05T02:26:37.378Z,7.35
2022-10-05T02:30:47.073Z,7.39
2022-10-05T02:34:50.568Z,7.45
2022-10-05T02:39:11.611Z,7.45
2022-10-05T02:43:49.321Z,7.41
2022-10-05T02:48:14.620Z,7.45
2022-10-05T02:52:30.116Z,7.48
2022-10-05T02:56:52.312Z,7.51
2022-10-05T03:01:32.713Z,7.53
2022-10-05T03:05:47.125Z,7.56
2022-10-05T03:10:03.295Z,7.52
2022-10-05T03:14:37.580Z,7.47
2022-10-05T03:19:20.584Z,7.42
2022-10-05T03:23:47.293Z,7.39
2022-10-05T03:28:00.703Z,7.36
2022-10-05T03:32:32.500Z,7.33
2022-10-05T03:37:07.251Z,7.33
2022-10-05T03:41:36.930Z,7.28
2022-10-05T03:46:13.450Z,7.19
2022-10-05T03:50:40.920Z,7.23
2022-10-05T03:54:56.894Z,7.27
2022-10-05T03:59:27.733Z,7.31
2022-10-05T04:03:48.481Z,7.31
2022-10-05T04:08:13.823Z,7.34
2022-10-05T04:12:27.930Z,7.36
2022-10-05T04:16:42.185Z,7.41
2022-10-05T04:20:54.681Z,7.44
2022-10-05T04:25:29.047Z,7.43
2022-10-05T04:29:51.108Z,7.37
2022-10-05T04:34:10.697Z,7.32
2022-10-05T04:38:52.068Z,7.31
2022-10-05T04:43:13.853Z,7.33
2022-10-05T04:47:42.441Z,7.37
2022-10-05T04:52:26.049Z,7.37
2022-10-05T04:56:40.479Z,7.37
2022-10-05T05:00:47.050Z,7.40
2022-10-05T05:05:29.487Z,7.46
2022-10-05T05:09:55.010Z,7.51
2022-10-05T05:14:14.786Z,7.53
2022-10-05T05:18:28.039Z,7.55
2022-10-05T05:22:55.863Z,7.56
2022-10-05T05:27:04.483Z,7.62
2022-10-05T05:31:24.813Z,7.64
2022-10-05T05:36:01.349Z,7.67
2022-10-05T05:40:25.793Z,7.75
2022-10-05T05:44:43.147Z,7.86
2022-10-05T05:48:47.835Z,7.96
2022-10-05T05:52:59.132Z,8.05
2022-10-05T05:57:15.893Z,8.12
2022-10-05T06:01:39.472Z,8.24
2022-10-05T06:05:52.650Z,8.40
2022-10-05T06:10:06.701Z,8.54
2022-10-05T06:14:25.550Z,8.68
2022-10-05T06:18:32.829Z,8.78
2022-10-05T06:22:42.116Z,8.84
2022-10-05T06:26:55.133Z,8.94
2022-10-05T06:31:24.692Z,9.07
2022-10-05T06:35:39.958Z,9.20
2022-10-05T06:40:01.292Z,9.36
2022-10-05T06:44:17.039Z,9.51
2022-10-05T06:48:54.962Z,9.67
2022-10-05T06:53:47.883Z,9.86
2022-10-05T06:58:28.027Z,9.97
2022-10-05T07:02:50.121Z,10.08
2022-10-05T07:07:06.242Z,10.15
2022-10-05T07:11:32.135Z,10.23
2022-10-05T07:15:54.013Z,10.38
2022-10-05T07:20:38.513Z,10.55
2022-10-05T07:25:06.181Z,10.73
2022-10-05T07:29:31.850Z,10.85
2022-10-05T07:34:03.564Z,10.96
2022-10-05T07:38:33.226Z,11.07
2022-10-05T07:42:52.001Z,11.15
2022-10-05T07:47:15.585Z,11.23
2022-10-05T07:51:34.204Z,11.34
2022-10-05T07:55:53.392Z,11.46
2022-10-05T08:00:06.630Z,11.56
2022-10-05T08:04:28.602Z,11.64
2022-10-05T08:08:48.304Z,11.73
2022-10-05T08:13:16.765Z,11.86
2022-10-05T08:17:34.556Z,11.97
2022-10-05T08:21:45.042Z,12.11
2022-10-05T08:26:15.529Z,12.27
2022-10-05T08:30:19.665Z,12.49
2022-10-05T08:34:56.320Z,12.65
2022-10-05T08:39:04.206Z,12.78
2022-10-05T08:43:29.579Z,12.89
2022-10-05T08:48:05.137Z,13.03
2022-10-05T08:52:21.234Z,13.26
2022-10-05T08:56:53.362Z,13.56
2022-10-05T09:01:05.139Z,13.82
2022-10-05T09:05:39.664Z,13.97
2022-10-05T09:09:52.081Z,14.17
2022-10-05T09:14:16.099Z,14.29
2022-10-05T09:18:50.062Z,14.40
2022-10-05T09:23:01.818Z,14.48
2022-10-05T09:27:18.153Z,14.51
2022-10-05T09:32:05.644Z,14.53
2022-10-05T09:36:24.241Z,14.54
2022-10-05T09:40:48.473Z,14.59
2022-10-05T09:45:07.667Z,14.68
2022-10-05T09:49:36.129Z,14.75
2022-10-05T09:53:51.223Z,14.82
2022-10-05T09:58:28.980Z,14.87
2022-10-05T10:02:35.147Z,14.89
2022-10-05T10:06:48.139Z,14.95
2022-10-05T10:11:10.379Z,14.98
2022-10-05T10:15:43.141Z,15.02
2022-10-05T10:20:08.327Z,15.08
2022-10-05T10:24:52.339Z,15.12
2022-10-05T10:29:22.048Z,15.19
2022-10-05T10:33:44.335Z,15.30
2022-10-05T10:38:13.654Z,15.39
2022-10-05T10:42:56.575Z,15.46
2022-10-05T10:47:27.753Z,15.49
2022-10-05T10:51:41.569Z,15.59
2022-10-05T10:56:22.170Z,15.69
2022-10-05T11:00:38.866Z,15.71
2022-10-05T11:05:14.193Z,15.67
2022-10-05T11:09:25.626Z,15.65
2022-10-05T11:13:39.035Z,15.75
2022-10-05T11:18:11.508Z,15.98
2022-10-05T11:22:52.116Z,16.14
2022-10-05T11:27:28.666Z,16.26
2022-10-05T11:31:57.983Z,16.43
2022-10-05T11:36:43.116Z,16.55
2022-10-05T11:41:29.669Z,16.63
2022-10-05T11:46:20.518Z,16.77
2022-10-05T11:50:42.278Z,16.97
2022-10-05T11:55:16.199Z,17.00
2022-10-05T11:59:27.246Z,17.00
2022-10-05T12:03:33.455Z,16.94
2022-10-05T12:07:51.173Z,16.85
2022-10-05T12:12:27.477Z,16.78
2022-10-05T12:17:00.952Z,16.79
2022-10-05T12:21:10.145Z,16.79
2022-10-05T12:25:22.420Z,16.79
2022-10-05T12:29:44.911Z,16.82
2022-10-05T12:33:54.216Z,16.95
2022-10-05T12:38:11.018Z,17.06
2022-10-05T12:42:41.924Z,17.17
2022-10-05T12:46:52.148Z,17.24
2022-10-05T12:51:14.696Z,17.19
2022-10-05T12:55:37.021Z,17.16
2022-10-05T13:00:02.390Z,17.15
2022-10-05T13:04:18.073Z,17.16
2022-10-05T13:08:42.509Z,17.21
2022-10-05T13:12:56.611Z,17.24
2022-10-05T13:17:10.950Z,17.20
2022-10-05T13:21:28.133Z,17.16
2022-10-05T13:26:08.153Z,17.12
2022-10-05T13:30:21.317Z,17.07
2022-10-05T13:34:55.845Z,17.01
2022-10-05T13:39:08.729Z,16.99
2022-10-05T13:47:59.974Z,16.91
2022-10-05T13:52:18.561Z,16.86
2022-10-05T13:56:23.134Z,16.81
2022-10-05T14:00:27.477Z,16.75
2022-10-05T14:04:52.530Z,16.71
2022-10-05T14:08:58.048Z,16.66
2022-10-05T14:13:21.949Z,16.65
2022-10-05T14:17:41.470Z,16.68
2022-10-05T14:22:02.452Z,16.68
2022-10-05T14:26:19.839Z,16.67
2022-10-05T14:30:26.024Z,16.64
2022-10-05T14:34:35.863Z,16.60
2022-10-05T14:38:55.399Z,16.55
2022-10-05T14:43:17.218Z,16.51
2022-10-05T14:47:24.481Z,16.48
2022-10-05T14:51:32.314Z,16.48
2022-10-05T14:55:47.958Z,16.44
2022-10-05T15:00:18.889Z,16.39
2022-10-05T15:04:27.817Z,16.33
2022-10-05T15:08:49.090Z,16.27
2022-10-05T15:13:15.850Z,16.18
2022-10-05T15:17:40.801Z,16.11
2022-10-05T15:22:02.085Z,16.04
2022-10-05T15:26:08.144Z,15.98
2022-10-05T15:30:18.441Z,15.89
2022-10-05T15:34:30.371Z,15.78
2022-10-05T15:38:41.733Z,15.66
2022-10-05T15:42:45.578Z,15.53
2022-10-05T15:47:39.014Z,15.44
2022-10-05T15:51:56.766Z,15.34
2022-10-05T15:56:20.853Z,15.17
2022-10-05T16:00:27.212Z,15.03
2022-10-05T16:04:42.896Z,15.00
2022-10-05T16:08:55.003Z,15.00
2022-10-05T16:13:01.070Z,14.98
2022-10-05T16:17:10.991Z,14.92
2022-10-05T16:21:44.273Z,14.86
2022-10-05T16:26:02.865Z,14.80
2022-10-05T16:30:09.771Z,14.77
2022-10-05T16:34:31.881Z,14.74
2022-10-05T16:39:14.465Z,14.68
2022-10-05T16:43:23.282Z,14.62
2022-10-05T16:47:37.934Z,14.60
2022-10-05T16:52:07.153Z,14.62
2022-10-05T16:56:13.924Z,14.58
2022-10-05T17:00:38.981Z,14.48
2022-10-05T17:05:01.144Z,14.39
2022-10-05T17:09:22.862Z,14.32
2022-10-05T17:13:41.350Z,14.28
2022-10-05T17:18:16.820Z,14.26
2022-10-05T17:22:34.737Z,14.24
2022-10-05T17:26:57.829Z,14.19
2022-10-05T17:31:20.706Z,14.16
2022-10-05T17:35:52.165Z,14.15
2022-10-05T17:39:56.395Z,14.11
2022-10-05T17:44:21.447Z,14.07
2022-10-05T17:49:06.842Z,14.01
2022-10-05T17:53:53.769Z,13.99
2022-10-05T17:58:00.043Z,13.98
2022-10-05T18:02:27.084Z,13.97
2022-10-05T18:06:33.994Z,13.94
2022-10-05T18:10:41.270Z,13.89
2022-10-05T18:15:05.862Z,13.87
2022-10-05T18:19:17.012Z,13.88
2022-10-05T18:23:25.744Z,13.85
2022-10-05T18:27:50.665Z,13.82
2022-10-05T18:32:03.075Z,13.77
2022-10-05T18:36:29.962Z,13.75
2022-10-05T18:40:50.583Z,13.74
2022-10-05T18:45:23.056Z,13.70
2022-10-05T18:50:08.138Z,13.65
2022-10-05T18:54:31.527Z,13.56
2022-10-05T18:58:41.345Z,13.52
2022-10-05T19:02:52.433Z,13.51
2022-10-05T19:07:30.270Z,13.48
2022-10-05T19:11:46.787Z,13.43
2022-10-05T19:16:11.946Z,13.36
2022-10-05T19:20:34.514Z,13.32
2022-10-05T19:25:06.406Z,13.28
2022-10-05T19:29:37.208Z,13.27
2022-10-05T19:33:56.293Z,13.24
2022-10-05T19:38:14.512Z,13.18
2022-10-05T19:42:42.722Z,13.12
2022-10-05T19:47:05.580Z,13.10
2022-10-05T19:51:33.115Z,13.09
2022-10-05T19:55:44.229Z,13.07
2022-10-05T19:59:48.746Z,13.03
2022-10-05T20:03:54.101Z,12.98
2022-10-05T20:07:58.285Z,12.95
2022-10-05T20:12:01.783Z,12.92
2022-10-05T20:16:29.294Z,12.85
2022-10-05T20:20:47.157Z,12.76
2022-10-05T20:24:58.396Z,12.68
2022-10-05T20:29:01.694Z,12.65
2022-10-05T20:33:10.794Z,12.64
2022-10-05T20:37:16.914Z,12.61
2022-10-05T20:41:20.268Z,12.55
2022-10-05T20:45:23.906Z,12.50
2022-10-05T20:49:28.838Z,12.46
2022-10-05T20:53:32.264Z,12.44
2022-10-05T20:57:38.801Z,12.41
2022-10-05T21:01:46.471Z,12.39
2022-10-05T21:05:55.414Z,12.34
2022-10-05T21:09:59.340Z,12.30
2022-10-05T21:14:05.681Z,12.26
2022-10-05T21:18:09.287Z,12.24
2022-10-05T21:22:12.612Z,12.20
2022-10-05T21:26:16.880Z,12.17
2022-10-05T21:30:20.359Z,12.10
2022-10-05T21:34:23.722Z,12.02
2022-10-05T21:38:28.508Z,11.96
2022-10-05T21:42:32.500Z,11.90
2022-10-05T21:46:36.952Z,11.87
2022-10-05T21:50:40.997Z,11.82
2022-10-05T21:54:44.398Z,11.73
2022-10-05T21:58:48.537Z,11.66
2022-10-05T22:02:51.875Z,11.63
2022-10-05T22:06:56.506Z,11.59
2022-10-05T22:11:01.859Z,11.55
2022-10-05T22:15:07.629Z,11.38
2022-10-05T22:19:18.986Z,11.25
2022-10-05T22:23:22.357Z,11.09
2022-10-05T22:27:29.563Z,11.00
2022-10-05T22:31:33.067Z,10.91
2022-10-05T22:35:37.021Z,10.92
2022-10-05T22:39:40.770Z,10.86
2022-10-05T22:43:44.618Z,10.76
2022-10-05T22:47:48.239Z,10.68
2022-10-05T22:51:51.711Z,10.65
2022-10-05T22:55:55.020Z,10.58
2022-10-05T22:59:58.341Z,10.54
2022-10-05T23:04:02.097Z,10.48
2022-10-05T23:08:05.415Z,10.34
2022-10-05T23:12:08.721Z,10.19
2022-10-05T23:16:17.490Z,10.11
2022-10-05T23:20:20.823Z,10.07
2022-10-05T23:24:24.153Z,10.06
2022-10-05T23:28:29.061Z,10.00
2022-10-05T23:32:32.887Z,9.94
2022-10-05T23:36:36.267Z,9.88
2022-10-05T23:40:39.572Z,9.85
2022-10-05T23:44:42.938Z,9.80
2022-10-05T23:48:46.289Z,9.70
2022-10-05T23:52:49.695Z,9.56
2022-10-05T23:56:53.065Z,9.49
